createdAt,value
2022-11-03T00:00:30.816Z,1006.1
2022-11-03T00:01:30.802Z,1006.13
2022-11-03T00:02:30.809Z,1006.14
2022-11-03T00:03:30.779Z,1006.1
2022-11-03T00:04:30.775Z,1006.08
2022-11-03T00:05:30.777Z,1006.05
2022-11-03T00:06:30.753Z,1006.13
2022-11-03T00:07:30.744Z,1006.1
2022-11-03T00:08:30.754Z,1006.11
2022-11-03T00:09:30.715Z,1006.15
2022-11-03T00:10:30.712Z,1006.13
2022-11-03T00:11:30.697Z,1006.11
2022-11-03T00:12:30.689Z,1006.07
2022-11-03T00:13:30.683Z,1006.09
2022-11-03T00:14:30.667Z,1006.08
2022-11-03T00:15:30.661Z,1006.05
2022-11-03T00:16:30.644Z,1006.06
2022-11-03T00:17:30.671Z,1006.02
2022-11-03T00:18:30.623Z,1005.99
2022-11-03T00:19:30.611Z,1006.01
2022-11-03T00:20:30.601Z,1006
2022-11-03T00:21:30.589Z,1005.99
2022-11-03T00:22:30.581Z,1006
2022-11-03T00:23:30.583Z,1005.97
2022-11-03T00:24:30.564Z,1005.95
2022-11-03T00:25:30.552Z,1006.01
2022-11-03T00:26:30.542Z,1005.91
2022-11-03T00:27:30.528Z,1005.88
2022-11-03T00:28:30.518Z,1005.89
2022-11-03T00:29:30.504Z,1005.83
2022-11-03T00:30:30.496Z,1005.87
2022-11-03T00:31:30.493Z,1005.87
2022-11-03T00:32:30.474Z,1005.93
2022-11-03T00:33:30.463Z,1005.81
2022-11-03T00:34:30.457Z,1005.81
2022-11-03T00:35:30.445Z,1005.73
2022-11-03T00:36:30.438Z,1005.69
2022-11-03T00:37:30.419Z,1005.73
2022-11-03T00:38:30.410Z,1005.75
2022-11-03T00:39:30.422Z,1005.75
2022-11-03T00:40:30.409Z,1005.66
2022-11-03T00:41:30.392Z,1005.71
2022-11-03T00:42:30.374Z,1005.66
2022-11-03T00:43:30.380Z,1005.64
2022-11-03T00:44:30.347Z,1005.67
2022-11-03T00:45:30.335Z,1005.67
2022-11-03T00:46:30.322Z,1005.64
2022-11-03T00:47:30.317Z,1005.69
2022-11-03T00:48:30.304Z,1005.69
2022-11-03T00:49:30.293Z,1005.68
2022-11-03T00:50:30.280Z,1005.61
2022-11-03T00:51:30.269Z,1005.66
2022-11-03T00:52:30.277Z,1005.58
2022-11-03T00:53:30.252Z,1005.59
2022-11-03T00:54:30.241Z,1005.56
2022-11-03T00:55:30.230Z,1005.6
2022-11-03T00:56:30.295Z,1005.52
2022-11-03T00:57:30.216Z,1005.56
2022-11-03T00:58:30.202Z,1005.54
2022-11-03T00:59:30.184Z,1005.5
2022-11-03T01:00:30.178Z,1005.5
2022-11-03T01:01:30.167Z,1005.47
2022-11-03T01:02:30.157Z,1005.47
2022-11-03T01:03:30.142Z,1005.39
2022-11-03T01:04:30.143Z,1005.41
2022-11-03T01:05:30.121Z,1005.34
2022-11-03T01:06:30.110Z,1005.29
2022-11-03T01:07:30.099Z,1005.35
2022-11-03T01:08:30.097Z,1005.31
2022-11-03T01:09:30.083Z,1005.31
2022-11-03T01:10:30.066Z,1005.31
2022-11-03T01:11:30.056Z,1005.32
2022-11-03T01:12:30.052Z,1005.3
2022-11-03T01:13:30.036Z,1005.35
2022-11-03T01:14:30.025Z,1005.38
2022-11-03T01:15:30.022Z,1005.33
2022-11-03T01:16:30.007Z,1005.29
2022-11-03T01:17:29.992Z,1005.24
2022-11-03T01:18:29.985Z,1005.24
2022-11-03T01:19:29.982Z,1005.26
2022-11-03T01:20:29.959Z,1005.26
2022-11-03T01:21:29.950Z,1005.25
2022-11-03T01:22:29.934Z,1005.29
2022-11-03T01:23:29.932Z,1005.28
2022-11-03T01:24:29.914Z,1005.26
2022-11-03T01:25:29.903Z,1005.29
2022-11-03T01:26:29.898Z,1005.32
2022-11-03T01:27:29.882Z,1005.25
2022-11-03T01:28:29.892Z,1005.26
2022-11-03T01:29:29.862Z,1005.22
2022-11-03T01:30:29.848Z,1005.18
2022-11-03T01:31:29.838Z,1005.21
2022-11-03T01:32:29.831Z,1005.09
2022-11-03T01:33:29.826Z,1005.1
2022-11-03T01:34:29.808Z,1005.12
2022-11-03T01:35:29.799Z,1005.09
2022-11-03T01:36:29.788Z,1005.12
2022-11-03T01:37:29.778Z,1005.01
2022-11-03T01:38:29.766Z,1005.09
2022-11-03T01:39:29.767Z,1005.11
2022-11-03T01:40:29.755Z,1005.03
2022-11-03T01:41:29.744Z,1004.94
2022-11-03T01:42:29.749Z,1004.99
2022-11-03T01:43:29.726Z,1004.97
2022-11-03T01:44:29.713Z,1004.99
2022-11-03T01:45:29.718Z,1004.95
2022-11-03T01:46:29.685Z,1004.99
2022-11-03T01:47:29.669Z,1004.98
2022-11-03T01:48:29.658Z,1004.94
2022-11-03T01:49:29.648Z,1004.96
2022-11-03T01:50:29.639Z,1004.97
2022-11-03T01:51:29.625Z,1004.91
2022-11-03T01:52:29.617Z,1004.91
2022-11-03T01:53:29.607Z,1004.94
2022-11-03T01:54:29.590Z,1004.92
2022-11-03T01:55:29.583Z,1004.9
2022-11-03T01:56:29.580Z,1004.85
2022-11-03T01:57:29.566Z,1004.93
2022-11-03T01:58:29.554Z,1004.82
2022-11-03T01:59:29.543Z,1004.94
2022-11-03T02:00:29.536Z,1004.93
2022-11-03T02:01:29.522Z,1004.96
2022-11-03T02:02:29.506Z,1004.92
2022-11-03T02:03:29.501Z,1004.92
2022-11-03T02:04:29.512Z,1004.89
2022-11-03T02:05:29.481Z,1004.92
2022-11-03T02:06:29.465Z,1004.96
2022-11-03T02:07:29.463Z,1004.86
2022-11-03T02:08:29.450Z,1004.88
2022-11-03T02:09:29.432Z,1004.84
2022-11-03T02:10:29.431Z,1004.86
2022-11-03T02:11:29.413Z,1004.82
2022-11-03T02:12:29.403Z,1004.85
2022-11-03T02:13:29.394Z,1004.86
2022-11-03T02:14:29.384Z,1004.79
2022-11-03T02:15:29.367Z,1004.79
2022-11-03T02:16:29.357Z,1004.85
2022-11-03T02:17:29.350Z,1004.8
2022-11-03T02:18:29.342Z,1004.74
2022-11-03T02:19:29.326Z,1004.8
2022-11-03T02:20:29.315Z,1004.8
2022-11-03T02:21:29.313Z,1004.7
2022-11-03T02:22:29.297Z,1004.66
2022-11-03T02:23:29.283Z,1004.75
2022-11-03T02:24:29.281Z,1004.7
2022-11-03T02:25:29.266Z,1004.69
2022-11-03T02:26:29.256Z,1004.63
2022-11-03T02:27:29.246Z,1004.58
2022-11-03T02:28:29.229Z,1004.6
2022-11-03T02:29:29.223Z,1004.55
2022-11-03T02:30:29.213Z,1004.5
2022-11-03T02:31:29.202Z,1004.5
2022-11-03T02:32:29.187Z,1004.47
2022-11-03T02:33:29.178Z,1004.46
2022-11-03T02:34:29.171Z,1004.44
2022-11-03T02:35:29.154Z,1004.42
2022-11-03T02:36:29.151Z,1004.37
2022-11-03T02:37:29.136Z,1004.38
2022-11-03T02:38:29.125Z,1004.36
2022-11-03T02:39:29.118Z,1004.34
2022-11-03T02:40:29.105Z,1004.36
2022-11-03T02:41:29.095Z,1004.27
2022-11-03T02:42:29.101Z,1004.29
2022-11-03T02:43:29.073Z,1004.32
2022-11-03T02:44:29.060Z,1004.27
2022-11-03T02:45:29.056Z,1004.17
2022-11-03T02:46:29.048Z,1004.23
2022-11-03T02:47:29.030Z,1004.23
2022-11-03T02:48:29.024Z,1004.22
2022-11-03T02:49:29.033Z,1004.21
2022-11-03T02:50:28.992Z,1004.17
2022-11-03T02:51:28.989Z,1004.18
2022-11-03T02:52:28.974Z,1004.24
2022-11-03T02:53:28.962Z,1004.18
2022-11-03T02:54:28.955Z,1004.15
2022-11-03T02:55:28.941Z,1004.13
2022-11-03T02:56:28.941Z,1004.15
2022-11-03T02:57:28.919Z,1004.06
2022-11-03T02:58:28.923Z,1004.18
2022-11-03T02:59:28.906Z,1004.17
2022-11-03T03:00:28.891Z,1004.16
2022-11-03T03:01:28.883Z,1004.22
2022-11-03T03:02:28.870Z,1004.17
2022-11-03T03:03:28.853Z,1004.11
2022-11-03T03:04:28.846Z,1004.1
2022-11-03T03:05:28.839Z,1004.15
2022-11-03T03:06:28.827Z,1004.1
2022-11-03T03:07:28.820Z,1004.11
2022-11-03T03:08:28.805Z,1004.06
2022-11-03T03:09:28.822Z,1004.08
2022-11-03T03:10:28.798Z,1004.07
2022-11-03T03:11:28.785Z,1004.03
2022-11-03T03:12:28.759Z,1004.03
2022-11-03T03:13:28.755Z,1004.04
2022-11-03T03:14:28.738Z,1004.01
2022-11-03T03:15:28.731Z,1003.98
2022-11-03T03:16:28.724Z,1004.02
2022-11-03T03:17:28.712Z,1004.03
2022-11-03T03:18:28.702Z,1003.99
2022-11-03T03:19:28.686Z,1003.95
2022-11-03T03:20:28.709Z,1003.96
2022-11-03T03:21:28.665Z,1003.92
2022-11-03T03:22:28.660Z,1003.97
2022-11-03T03:23:28.652Z,1003.91
2022-11-03T03:24:28.631Z,1003.9
2022-11-03T03:25:28.629Z,1003.86
2022-11-03T03:26:28.619Z,1003.88
2022-11-03T03:27:28.606Z,1003.89
2022-11-03T03:28:28.611Z,1003.91
2022-11-03T03:29:28.583Z,1003.85
2022-11-03T03:30:28.575Z,1003.85
2022-11-03T03:31:28.565Z,1003.8
2022-11-03T03:32:28.549Z,1003.81
2022-11-03T03:34:28.536Z,1003.75
2022-11-03T03:35:28.519Z,1003.75
2022-11-03T03:36:28.502Z,1003.72
2022-11-03T03:37:28.749Z,1003.66
2022-11-03T03:38:28.477Z,1003.67
2022-11-03T03:39:28.472Z,1003.64
2022-11-03T03:40:28.459Z,1003.63
2022-11-03T03:41:28.450Z,1003.62
2022-11-03T03:42:28.441Z,1003.62
2022-11-03T03:43:28.426Z,1003.58
2022-11-03T03:44:28.417Z,1003.66
2022-11-03T03:45:28.406Z,1003.59
2022-11-03T03:46:28.394Z,1003.57
2022-11-03T03:47:28.408Z,1003.59
2022-11-03T03:48:28.371Z,1003.55
2022-11-03T03:49:28.366Z,1003.53
2022-11-03T03:50:28.350Z,1003.51
2022-11-03T03:51:28.344Z,1003.58
2022-11-03T03:52:28.326Z,1003.47
2022-11-03T03:53:28.317Z,1003.48
2022-11-03T03:54:28.316Z,1003.41
2022-11-03T03:55:28.296Z,1003.48
2022-11-03T03:56:28.283Z,1003.41
2022-11-03T03:57:28.280Z,1003.47
2022-11-03T03:58:28.275Z,1003.47
2022-11-03T03:59:28.269Z,1003.46
2022-11-03T04:00:28.242Z,1003.54
2022-11-03T04:01:28.238Z,1003.51
2022-11-03T04:02:28.226Z,1003.43
2022-11-03T04:03:28.210Z,1003.45
2022-11-03T04:04:28.200Z,1003.47
2022-11-03T04:05:28.196Z,1003.41
2022-11-03T04:06:28.179Z,1003.42
2022-11-03T04:07:28.172Z,1003.4
2022-11-03T04:08:28.161Z,1003.4
2022-11-03T04:09:28.145Z,1003.38
2022-11-03T04:10:28.135Z,1003.37
2022-11-03T04:11:28.127Z,1003.45
2022-11-03T04:12:28.116Z,1003.36
2022-11-03T04:13:28.110Z,1003.38
2022-11-03T04:14:28.098Z,1003.33
2022-11-03T04:15:28.087Z,1003.35
2022-11-03T04:16:28.072Z,1003.34
2022-11-03T04:17:28.060Z,1003.33
2022-11-03T04:18:28.061Z,1003.31
2022-11-03T04:19:28.049Z,1003.3
2022-11-03T04:20:28.030Z,1003.28
2022-11-03T04:21:28.018Z,1003.33
2022-11-03T04:22:28.010Z,1003.26
2022-11-03T04:23:28.001Z,1003.26
2022-11-03T04:24:27.987Z,1003.26
2022-11-03T04:25:27.979Z,1003.16
2022-11-03T04:26:27.966Z,1003.21
2022-11-03T04:27:27.959Z,1003.17
2022-11-03T04:28:27.944Z,1003.17
2022-11-03T04:29:27.938Z,1003.2
2022-11-03T04:30:27.923Z,1003.19
2022-11-03T04:31:27.919Z,1003.14
2022-11-03T04:32:27.910Z,1003.15
2022-11-03T04:33:27.897Z,1003.14
2022-11-03T04:34:27.887Z,1003.11
2022-11-03T04:35:27.875Z,1003.12
2022-11-03T04:36:27.862Z,1003.06
2022-11-03T04:37:27.848Z,1003.08
2022-11-03T04:38:27.854Z,1003.1
2022-11-03T04:39:27.839Z,1003.1
2022-11-03T04:40:27.823Z,1003.08
2022-11-03T04:41:27.803Z,1003.09
2022-11-03T04:42:27.806Z,1003.02
2022-11-03T04:43:27.787Z,1003.06
2022-11-03T04:44:27.777Z,1003.06
2022-11-03T04:45:27.774Z,1003.03
2022-11-03T04:46:27.754Z,1002.9
2022-11-03T04:47:27.743Z,1002.98
2022-11-03T04:48:27.731Z,1002.96
2022-11-03T04:49:27.722Z,1002.91
2022-11-03T04:50:27.708Z,1002.96
2022-11-03T04:51:27.704Z,1002.95
2022-11-03T04:52:27.693Z,1002.97
2022-11-03T04:53:27.682Z,1002.93
2022-11-03T04:54:27.662Z,1002.95
2022-11-03T04:55:27.680Z,1002.84
2022-11-03T04:56:27.647Z,1002.87
2022-11-03T04:57:27.636Z,1002.82
2022-11-03T04:58:27.623Z,1002.89
2022-11-03T04:59:27.613Z,1002.8
2022-11-03T05:00:27.604Z,1002.83
2022-11-03T05:01:27.602Z,1002.87
2022-11-03T05:02:27.578Z,1002.86
2022-11-03T05:03:27.573Z,1002.81
2022-11-03T05:04:27.562Z,1002.78
2022-11-03T05:05:27.545Z,1002.77
2022-11-03T05:06:27.541Z,1002.73
2022-11-03T05:07:27.525Z,1002.71
2022-11-03T05:08:27.548Z,1002.75
2022-11-03T05:09:27.507Z,1002.68
2022-11-03T05:10:27.493Z,1002.71
2022-11-03T05:11:27.479Z,1002.72
2022-11-03T05:12:27.471Z,1002.7
2022-11-03T05:13:30.183Z,1002.78
2022-11-03T05:14:27.450Z,1002.72
2022-11-03T05:15:27.445Z,1002.7
2022-11-03T05:16:27.432Z,1002.68
2022-11-03T05:17:27.415Z,1002.61
2022-11-03T05:18:27.404Z,1002.65
2022-11-03T05:19:27.396Z,1002.7
2022-11-03T05:20:27.388Z,1002.62
2022-11-03T05:21:27.378Z,1002.65
2022-11-03T05:22:27.366Z,1002.64
2022-11-03T05:23:27.354Z,1002.56
2022-11-03T05:24:27.350Z,1002.57
2022-11-03T05:25:27.332Z,1002.5
2022-11-03T05:26:27.329Z,1002.52
2022-11-03T05:27:27.311Z,1002.55
2022-11-03T05:28:27.301Z,1002.56
2022-11-03T05:29:27.290Z,1002.56
2022-11-03T05:30:27.273Z,1002.54
2022-11-03T05:31:27.264Z,1002.56
2022-11-03T05:32:27.257Z,1002.54
2022-11-03T05:33:27.258Z,1002.47
2022-11-03T05:34:27.229Z,1002.45
2022-11-03T05:35:27.224Z,1002.45
2022-11-03T05:36:27.206Z,1002.44
2022-11-03T05:37:27.197Z,1002.45
2022-11-03T05:38:27.194Z,1002.44
2022-11-03T05:39:27.182Z,1002.41
2022-11-03T05:40:27.167Z,1002.43
2022-11-03T05:41:27.157Z,1002.47
2022-11-03T05:42:27.147Z,1002.39
2022-11-03T05:43:27.130Z,1002.44
2022-11-03T05:44:27.124Z,1002.4
2022-11-03T05:45:27.116Z,1002.42
2022-11-03T05:46:27.105Z,1002.41
2022-11-03T05:47:27.087Z,1002.41
2022-11-03T05:48:27.084Z,1002.45
2022-11-03T05:49:27.072Z,1002.42
2022-11-03T05:50:27.060Z,1002.39
2022-11-03T05:51:27.051Z,1002.42
2022-11-03T05:52:27.041Z,1002.43
2022-11-03T05:53:27.027Z,1002.38
2022-11-03T05:54:27.015Z,1002.37
2022-11-03T05:55:27.006Z,1002.36
2022-11-03T05:56:26.994Z,1002.34
2022-11-03T05:57:26.984Z,1002.37
2022-11-03T05:58:26.975Z,1002.3
2022-11-03T05:59:26.982Z,1002.38
2022-11-03T06:00:26.949Z,1002.35
2022-11-03T06:01:26.948Z,1002.35
2022-11-03T06:02:26.928Z,1002.31
2022-11-03T06:03:26.923Z,1002.27
2022-11-03T06:04:26.912Z,1002.26
2022-11-03T06:05:26.914Z,1002.29
2022-11-03T06:06:26.885Z,1002.26
2022-11-03T06:07:26.872Z,1002.23
2022-11-03T06:08:26.867Z,1002.31
2022-11-03T06:09:26.862Z,1002.36
2022-11-03T06:10:26.841Z,1002.28
2022-11-03T06:11:26.854Z,1002.33
2022-11-03T06:12:26.848Z,1002.32
2022-11-03T06:13:26.810Z,1002.35
2022-11-03T06:14:26.808Z,1002.28
2022-11-03T06:15:26.795Z,1002.2
2022-11-03T06:16:26.782Z,1002.25
2022-11-03T06:17:26.770Z,1002.25
2022-11-03T06:18:26.760Z,1002.26
2022-11-03T06:19:26.753Z,1002.24
2022-11-03T06:20:26.737Z,1002.3
2022-11-03T06:21:26.759Z,1002.24
2022-11-03T06:22:26.729Z,1002.23
2022-11-03T06:23:26.738Z,1002.23
2022-11-03T06:24:26.718Z,1002.28
2022-11-03T06:25:26.686Z,1002.19
2022-11-03T06:26:26.673Z,1002.19
2022-11-03T06:27:26.664Z,1002.19
2022-11-03T06:28:26.653Z,1002.23
2022-11-03T06:29:26.641Z,1002.27
2022-11-03T06:30:26.635Z,1002.24
2022-11-03T06:31:26.618Z,1002.15
2022-11-03T06:32:26.611Z,1002.25
2022-11-03T06:33:26.597Z,1002.24
2022-11-03T06:34:26.588Z,1002.2
2022-11-03T06:35:26.571Z,1002.23
2022-11-03T06:36:26.565Z,1002.21
2022-11-03T06:37:26.555Z,1002.13
2022-11-03T06:38:26.541Z,1002.19
2022-11-03T06:39:26.535Z,1002.1
2022-11-03T06:40:26.520Z,1002.15
2022-11-03T06:41:26.516Z,1002.18
2022-11-03T06:42:26.495Z,1002.17
2022-11-03T06:43:26.490Z,1002.08
2022-11-03T06:44:26.477Z,1002.06
2022-11-03T06:45:26.466Z,1002.06
2022-11-03T06:46:26.451Z,1002.09
2022-11-03T06:47:26.449Z,1002.11
2022-11-03T06:48:26.471Z,1002.09
2022-11-03T06:49:26.421Z,1002.03
2022-11-03T06:50:26.411Z,1002.05
2022-11-03T06:51:26.405Z,1001.98
2022-11-03T06:52:26.392Z,1001.99
2022-11-03T06:53:26.382Z,1002.01
2022-11-03T06:54:26.377Z,1001.99
2022-11-03T06:55:26.361Z,1001.99
2022-11-03T06:56:26.371Z,1002
2022-11-03T06:57:26.342Z,1001.95
2022-11-03T06:58:26.332Z,1001.96
2022-11-03T06:59:26.320Z,1001.96
2022-11-03T07:00:26.303Z,1001.89
2022-11-03T07:01:26.309Z,1001.96
2022-11-03T07:02:26.291Z,1001.9
2022-11-03T07:03:26.278Z,1001.92
2022-11-03T07:04:26.291Z,1001.89
2022-11-03T07:05:26.255Z,1001.96
2022-11-03T07:06:26.250Z,1001.94
2022-11-03T07:07:26.239Z,1001.91
2022-11-03T07:08:26.233Z,1001.85
2022-11-03T07:09:26.205Z,1001.89
2022-11-03T07:10:26.197Z,1001.92
2022-11-03T07:11:26.191Z,1001.89
2022-11-03T07:12:26.174Z,1001.87
2022-11-03T07:13:26.181Z,1001.81
2022-11-03T07:14:26.162Z,1001.81
2022-11-03T07:15:26.162Z,1001.82
2022-11-03T07:16:26.138Z,1001.82
2022-11-03T07:17:26.133Z,1001.78
2022-11-03T07:18:26.114Z,1001.78
2022-11-03T07:19:26.110Z,1001.77
2022-11-03T07:20:26.108Z,1001.78
2022-11-03T07:21:26.076Z,1001.82
2022-11-03T07:22:26.074Z,1001.75
2022-11-03T07:23:26.056Z,1001.74
2022-11-03T07:24:26.049Z,1001.68
2022-11-03T07:25:26.039Z,1001.73
2022-11-03T07:26:26.068Z,1001.72
2022-11-03T07:27:26.037Z,1001.67
2022-11-03T07:28:26.002Z,1001.69
2022-11-03T07:29:26.001Z,1001.71
2022-11-03T07:30:26.024Z,1001.7
2022-11-03T07:31:25.971Z,1001.65
2022-11-03T07:32:25.991Z,1001.61
2022-11-03T07:33:26.042Z,1001.58
2022-11-03T07:34:27.115Z,1001.59
2022-11-03T07:35:26.085Z,1001.63
2022-11-03T07:36:25.938Z,1001.63
2022-11-03T07:37:25.906Z,1001.58
2022-11-03T07:38:25.981Z,1001.61
2022-11-03T07:39:25.892Z,1001.6
2022-11-03T07:40:25.877Z,1001.58
2022-11-03T07:41:25.920Z,1001.61
2022-11-03T07:42:26.886Z,1001.56
2022-11-03T07:43:25.858Z,1001.55
2022-11-03T07:44:25.831Z,1001.55
2022-11-03T07:45:25.877Z,1001.55
2022-11-03T07:46:25.893Z,1001.59
2022-11-03T07:47:25.827Z,1001.47
2022-11-03T07:48:25.843Z,1001.42
2022-11-03T07:49:25.782Z,1001.42
2022-11-03T07:50:25.759Z,1001.41
2022-11-03T07:51:25.770Z,1001.45
2022-11-03T07:52:25.739Z,1001.42
2022-11-03T07:53:25.734Z,1001.36
2022-11-03T07:54:25.741Z,1001.38
2022-11-03T07:55:25.707Z,1001.42
2022-11-03T07:56:25.716Z,1001.34
2022-11-03T07:57:25.681Z,1001.33
2022-11-03T07:58:25.947Z,1001.31
2022-11-03T07:59:25.751Z,1001.29
2022-11-03T08:00:25.679Z,1001.21
2022-11-03T08:10:01.004Z,1001.03
2022-11-03T08:11:01.821Z,1001
2022-11-03T08:12:00.805Z,1000.94
2022-11-03T08:13:01.208Z,1000.99
2022-11-03T08:14:00.776Z,1000.96
2022-11-03T08:15:00.773Z,1000.98
2022-11-03T08:16:00.725Z,1001.04
2022-11-03T08:17:00.737Z,1000.96
2022-11-03T08:18:00.717Z,1000.94
2022-11-03T08:19:00.714Z,1000.9
2022-11-03T08:20:00.684Z,1000.93
2022-11-03T08:21:00.710Z,1000.85
2022-11-03T08:22:00.735Z,1000.84
2022-11-03T08:23:00.664Z,1000.75
2022-11-03T08:24:00.671Z,1000.76
2022-11-03T08:25:00.669Z,1000.76
2022-11-03T08:26:00.831Z,1000.75
2022-11-03T08:27:00.634Z,1000.72
2022-11-03T08:28:00.689Z,1000.71
2022-11-03T08:29:00.745Z,1000.69
2022-11-03T08:30:00.664Z,1000.72
2022-11-03T08:31:00.606Z,1000.72
2022-11-03T08:32:00.680Z,1000.78
2022-11-03T08:33:01.572Z,1000.71
2022-11-03T08:34:00.580Z,1000.79
2022-11-03T08:35:01.764Z,1000.75
2022-11-03T08:36:00.585Z,1000.76
2022-11-03T08:37:00.534Z,1000.76
2022-11-03T08:38:00.574Z,1000.76
2022-11-03T08:39:01.489Z,1000.74
2022-11-03T08:40:00.512Z,1000.67
2022-11-03T08:41:00.484Z,1000.61
2022-11-03T08:42:00.529Z,1000.63
2022-11-03T08:43:00.653Z,1000.54
2022-11-03T08:44:00.498Z,1000.53
2022-11-03T08:45:01.506Z,1000.51
2022-11-03T08:46:00.506Z,1000.46
2022-11-03T08:47:00.422Z,1000.41
2022-11-03T08:48:01.395Z,1000.44
2022-11-03T08:49:00.402Z,1000.39
2022-11-03T08:50:01.386Z,1000.33
2022-11-03T08:51:00.359Z,1000.3
2022-11-03T08:52:00.474Z,1000.19
2022-11-03T08:53:00.357Z,1000.17
2022-11-03T08:54:00.357Z,1000.07
2022-11-03T08:55:00.321Z,1000
2022-11-03T08:56:00.312Z,999.92
2022-11-03T08:57:00.398Z,999.81
2022-11-03T08:58:01.318Z,999.72
2022-11-03T08:59:01.329Z,999.68
2022-11-03T09:00:00.282Z,999.67
2022-11-03T09:01:00.367Z,999.66
2022-11-03T09:02:00.302Z,999.7
2022-11-03T09:03:00.400Z,999.7
2022-11-03T09:04:00.266Z,999.74
2022-11-03T09:05:00.216Z,999.71
2022-11-03T09:06:00.222Z,999.65
2022-11-03T09:07:00.212Z,999.7
2022-11-03T09:10:00.158Z,999.7
2022-11-03T09:11:00.161Z,999.71
2022-11-03T09:12:00.138Z,999.66
2022-11-03T09:13:00.124Z,999.69
2022-11-03T09:14:00.120Z,999.63
2022-11-03T09:15:00.126Z,999.69
2022-11-03T09:16:00.128Z,999.67
2022-11-03T09:17:00.100Z,999.77
2022-11-03T09:18:00.113Z,999.69
2022-11-03T09:19:00.061Z,999.7
2022-11-03T09:20:00.053Z,999.73
2022-11-03T09:21:00.070Z,999.72
2022-11-03T09:22:00.058Z,999.67
2022-11-03T09:23:00.031Z,999.72
2022-11-03T09:24:00.022Z,999.66
2022-11-03T09:25:00.037Z,999.66
2022-11-03T09:26:00.025Z,999.62
2022-11-03T09:27:00.022Z,999.68
2022-11-03T09:28:00.015Z,999.6
2022-11-03T09:29:00.035Z,999.58
2022-11-03T09:29:59.947Z,999.59
2022-11-03T09:30:59.938Z,999.62
2022-11-03T09:32:00.110Z,999.62
2022-11-03T09:32:59.934Z,999.59
2022-11-03T09:33:59.943Z,999.64
2022-11-03T09:34:59.902Z,999.6
2022-11-03T09:35:59.948Z,999.6
2022-11-03T09:36:59.900Z,999.67
2022-11-03T09:37:59.915Z,999.54
2022-11-03T09:39:00.952Z,999.59
2022-11-03T09:39:59.854Z,999.64
2022-11-03T09:40:59.843Z,999.65
2022-11-03T09:41:59.826Z,999.73
2022-11-03T09:42:59.817Z,999.65
2022-11-03T09:43:59.797Z,999.71
2022-11-03T09:44:59.838Z,999.76
2022-11-03T09:45:59.778Z,999.7
2022-11-03T09:46:59.770Z,999.72
2022-11-03T09:47:59.763Z,999.76
2022-11-03T09:48:59.751Z,999.75
2022-11-03T09:49:59.798Z,999.73
2022-11-03T09:50:59.718Z,999.82
2022-11-03T09:51:59.706Z,999.8
2022-11-03T09:52:59.706Z,999.79
2022-11-03T09:53:59.685Z,999.74
2022-11-03T09:54:59.678Z,999.65
2022-11-03T09:55:59.685Z,999.76
2022-11-03T09:56:59.654Z,999.76
2022-11-03T09:57:59.673Z,999.7
2022-11-03T09:58:59.653Z,999.63
2022-11-03T09:59:59.624Z,999.67
2022-11-03T10:00:59.616Z,999.66
2022-11-03T10:01:59.627Z,999.68
2022-11-03T10:02:59.596Z,999.63
2022-11-03T10:03:59.582Z,999.59
2022-11-03T10:04:59.569Z,999.54
2022-11-03T10:05:59.560Z,999.52
2022-11-03T10:06:59.558Z,999.52
2022-11-03T10:07:59.569Z,999.49
2022-11-03T10:08:59.529Z,999.47
2022-11-03T10:09:59.532Z,999.44
2022-11-03T10:10:59.515Z,999.42
2022-11-03T10:11:59.499Z,999.41
2022-11-03T10:12:59.488Z,999.4
2022-11-03T10:13:59.476Z,999.37
2022-11-03T10:14:59.462Z,999.32
2022-11-03T10:15:59.456Z,999.33
2022-11-03T10:16:59.442Z,999.31
2022-11-03T10:17:59.430Z,999.31
2022-11-03T10:18:59.448Z,999.31
2022-11-03T10:19:59.428Z,999.29
2022-11-03T10:20:59.514Z,999.26
2022-11-03T10:21:59.384Z,999.27
2022-11-03T10:22:59.385Z,999.29
2022-11-03T10:23:59.374Z,999.25
2022-11-03T10:24:59.405Z,999.31
2022-11-03T10:25:59.377Z,999.32
2022-11-03T10:26:59.353Z,999.23
2022-11-03T10:27:59.332Z,999.23
2022-11-03T10:28:59.351Z,999.16
2022-11-03T10:29:59.307Z,999.2
2022-11-03T10:30:59.307Z,999.18
2022-11-03T10:31:59.284Z,999.17
2022-11-03T10:32:59.271Z,999.23
2022-11-03T10:33:59.359Z,999.19
2022-11-03T10:35:00.318Z,999.15
2022-11-03T10:35:59.240Z,999.17
2022-11-03T10:36:59.228Z,999.17
2022-11-03T10:37:59.214Z,999.13
2022-11-03T10:38:59.252Z,999.17
2022-11-03T10:39:59.240Z,999.12
2022-11-03T10:40:59.186Z,999.11
2022-11-03T10:41:59.174Z,999.08
2022-11-03T10:42:59.174Z,999.11
2022-11-03T10:43:59.217Z,999.12
2022-11-03T10:44:59.153Z,999.08
2022-11-03T10:45:59.163Z,999.1
2022-11-03T10:46:59.130Z,999.05
2022-11-03T10:47:59.117Z,999.02
2022-11-03T10:48:59.106Z,999.03
2022-11-03T10:49:59.086Z,998.97
2022-11-03T10:50:59.085Z,998.95
2022-11-03T10:52:00.072Z,998.89
2022-11-03T10:52:59.056Z,998.87
2022-11-03T10:53:59.045Z,998.81
2022-11-03T10:54:59.068Z,998.8
2022-11-03T10:55:59.031Z,998.77
2022-11-03T10:56:59.019Z,998.75
2022-11-03T10:57:59.008Z,998.72
2022-11-03T10:59:58.989Z,998.6
2022-11-03T11:00:58.972Z,998.6
2022-11-03T11:01:58.987Z,998.53
2022-11-03T11:02:58.958Z,998.57
2022-11-03T11:03:58.948Z,998.48
2022-11-03T11:04:58.930Z,998.41
2022-11-03T11:05:58.948Z,998.43
2022-11-03T11:06:58.919Z,998.35
2022-11-03T11:07:58.916Z,998.35
2022-11-03T11:08:58.884Z,998.29
2022-11-03T11:09:58.882Z,998.31
2022-11-03T11:10:58.871Z,998.35
2022-11-03T11:11:58.898Z,998.34
2022-11-03T11:12:58.859Z,998.24
2022-11-03T11:13:58.831Z,998.31
2022-11-03T11:14:58.817Z,998.35
2022-11-03T11:15:58.829Z,998.38
2022-11-03T11:16:58.803Z,998.31
2022-11-03T11:17:58.789Z,998.32
2022-11-03T11:18:58.793Z,998.36
2022-11-03T11:19:58.805Z,998.36
2022-11-03T11:20:58.757Z,998.28
2022-11-03T11:21:58.744Z,998.36
2022-11-03T11:22:58.740Z,998.35
2022-11-03T11:23:58.732Z,998.27
2022-11-03T11:24:58.713Z,998.26
2022-11-03T11:25:58.705Z,998.21
2022-11-03T11:26:58.769Z,998.24
2022-11-03T11:30:00.999Z,998.13
2022-11-03T11:31:01.027Z,998.11
2022-11-03T11:32:01.077Z,998.08
2022-11-03T11:33:00.983Z,998.1
2022-11-03T11:34:00.875Z,998.06
2022-11-03T11:35:00.821Z,998.08
2022-11-03T11:36:00.843Z,997.96
2022-11-03T11:37:00.806Z,997.99
2022-11-03T11:38:00.804Z,998.01
2022-11-03T11:39:00.808Z,997.94
2022-11-03T11:40:00.838Z,997.94
2022-11-03T11:41:00.763Z,997.87
2022-11-03T11:42:00.753Z,997.91
2022-11-03T11:43:00.725Z,997.82
2022-11-03T11:44:00.732Z,997.83
2022-11-03T11:45:00.805Z,997.86
2022-11-03T11:46:01.706Z,997.93
2022-11-03T11:47:00.881Z,997.85
2022-11-03T11:48:01.152Z,997.87
2022-11-03T11:49:00.680Z,997.86
2022-11-03T11:50:00.760Z,997.79
2022-11-03T11:51:00.884Z,997.78
2022-11-03T11:52:01.009Z,997.66
2022-11-03T11:53:00.966Z,997.74
2022-11-03T11:54:00.777Z,997.7
2022-11-03T11:55:01.986Z,997.74
2022-11-03T11:56:00.981Z,997.72
2022-11-03T11:57:00.780Z,997.69
2022-11-03T11:58:00.668Z,997.62
2022-11-03T11:59:00.561Z,997.64
2022-11-03T12:00:00.631Z,997.54
2022-11-03T12:01:01.700Z,997.5
2022-11-03T12:02:00.652Z,997.46
2022-11-03T12:03:00.552Z,997.46
2022-11-03T12:04:00.973Z,997.49
2022-11-03T12:05:00.672Z,997.43
2022-11-03T12:06:01.521Z,997.42
2022-11-03T12:07:00.557Z,997.38
2022-11-03T12:08:01.486Z,997.32
2022-11-03T12:09:00.465Z,997.22
2022-11-03T12:10:00.467Z,997.25
2022-11-03T12:11:00.475Z,997.18
2022-11-03T12:12:00.877Z,997.18
2022-11-03T12:13:00.635Z,997.16
2022-11-03T12:14:00.862Z,996.99
2022-11-03T12:15:00.561Z,997.06
2022-11-03T12:16:01.389Z,996.95
2022-11-03T12:17:00.470Z,996.91
2022-11-03T12:18:00.456Z,996.8
2022-11-03T12:19:00.371Z,996.76
2022-11-03T12:20:00.363Z,996.74
2022-11-03T12:21:00.414Z,996.71
2022-11-03T12:22:00.318Z,996.79
2022-11-03T12:23:00.417Z,996.81
2022-11-03T12:24:00.331Z,996.84
2022-11-03T12:25:00.606Z,996.86
2022-11-03T12:26:00.359Z,996.89
2022-11-03T12:27:00.524Z,996.92
2022-11-03T12:28:00.292Z,996.91
2022-11-03T12:29:00.264Z,996.91